sensor_id;sensor_type;location;lat;lon;timestamp;temperature;humidity
52869;DHT22;39100;53.480;6.158;2022-11-15T00:01:35;8.30;99.90
52869;DHT22;39100;53.480;6.158;2022-11-15T00:04:03;8.30;99.90
52869;DHT22;39100;53.480;6.158;2022-11-15T00:06:29;8.30;99.90
52869;DHT22;39100;53.480;6.158;2022-11-15T00:08:54;8.30;99.90
52869;DHT22;39100;53.480;6.158;2022-11-15T00:11:20;8.30;99.90
52869;DHT22;39100;53.480;6.158;2022-11-15T00:13:46;8.30;99.90
52869;DHT22;39100;53.480;6.158;2022-11-15T00:16:11;8.30;99.90
52869;DHT22;39100;53.480;6.158;2022-11-15T00:18:38;8.30;99.90
52869;DHT22;39100;53.480;6.158;2022-11-15T00:21:06;8.30;99.90
52869;DHT22;39100;53.480;6.158;2022-11-15T00:23:33;8.30;99.90
52869;DHT22;39100;53.480;6.158;2022-11-15T00:25:59;8.30;99.90
52869;DHT22;39100;53.480;6.158;2022-11-15T00:28:25;8.30;99.90
52869;DHT22;39100;53.480;6.158;2022-11-15T00:30:50;8.30;99.90
52869;DHT22;39100;53.480;6.158;2022-11-15T00:33:16;8.40;99.90
52869;DHT22;39100;53.480;6.158;2022-11-15T00:35:42;8.40;99.90
52869;DHT22;39100;53.480;6.158;2022-11-15T00:38:07;8.30;99.90
52869;DHT22;39100;53.480;6.158;2022-11-15T00:40:33;8.30;99.90
52869;DHT22;39100;53.480;6.158;2022-11-15T00:42:59;8.30;99.90
52869;DHT22;39100;53.480;6.158;2022-11-15T00:45:25;8.30;99.90
52869;DHT22;39100;53.480;6.158;2022-11-15T00:47:51;8.30;99.90
52869;DHT22;39100;53.480;6.158;2022-11-15T00:50:16;8.20;99.90
52869;DHT22;39100;53.480;6.158;2022-11-15T00:52:42;8.20;99.90
52869;DHT22;39100;53.480;6.158;2022-11-15T00:55:16;8.10;99.90
52869;DHT22;39100;53.480;6.158;2022-11-15T00:57:42;8.10;99.90
52869;DHT22;39100;53.480;6.158;2022-11-15T01:00:08;8.00;99.90
52869;DHT22;39100;53.480;6.158;2022-11-15T01:02:34;8.00;99.90
52869;DHT22;39100;53.480;6.158;2022-11-15T01:05:00;8.00;99.90
52869;DHT22;39100;53.480;6.158;2022-11-15T01:07:25;7.90;99.90
52869;DHT22;39100;53.480;6.158;2022-11-15T01:09:51;7.90;99.90
52869;DHT22;39100;53.480;6.158;2022-11-15T01:12:17;7.80;99.90
52869;DHT22;39100;53.480;6.158;2022-11-15T01:14:42;7.80;99.90
52869;DHT22;39100;53.480;6.158;2022-11-15T01:17:08;7.80;99.90
52869;DHT22;39100;53.480;6.158;2022-11-15T01:19:33;7.80;99.90
52869;DHT22;39100;53.480;6.158;2022-11-15T01:21:59;7.80;99.90
52869;DHT22;39100;53.480;6.158;2022-11-15T01:24:25;7.90;99.90
52869;DHT22;39100;53.480;6.158;2022-11-15T01:26:50;7.90;99.90
52869;DHT22;39100;53.480;6.158;2022-11-15T01:29:16;7.90;99.90
52869;DHT22;39100;53.480;6.158;2022-11-15T01:31:42;7.90;99.90
52869;DHT22;39100;53.480;6.158;2022-11-15T01:34:07;7.90;99.90
52869;DHT22;39100;53.480;6.158;2022-11-15T01:36:33;7.90;99.90
52869;DHT22;39100;53.480;6.158;2022-11-15T01:38:59;8.00;99.90
52869;DHT22;39100;53.480;6.158;2022-11-15T01:41:31;7.90;99.90
52869;DHT22;39100;53.480;6.158;2022-11-15T01:47:03;8.00;99.90
52869;DHT22;39100;53.480;6.158;2022-11-15T01:49:31;8.00;99.90
52869;DHT22;39100;53.480;6.158;2022-11-15T01:51:59;8.00;99.90
52869;DHT22;39100;53.480;6.158;2022-11-15T01:54:25;8.00;99.90
52869;DHT22;39100;53.480;6.158;2022-11-15T01:57:06;8.00;99.90
52869;DHT22;39100;53.480;6.158;2022-11-15T01:59:33;8.00;99.90
52869;DHT22;39100;53.480;6.158;2022-11-15T02:01:59;8.00;99.90
52869;DHT22;39100;53.480;6.158;2022-11-15T02:04:33;8.00;99.90
52869;DHT22;39100;53.480;6.158;2022-11-15T02:07:03;8.00;99.90
52869;DHT22;39100;53.480;6.158;2022-11-15T02:09:30;8.00;99.90
52869;DHT22;39100;53.480;6.158;2022-11-15T02:11:56;8.00;99.90
52869;DHT22;39100;53.480;6.158;2022-11-15T02:14:22;8.00;99.90
52869;DHT22;39100;53.480;6.158;2022-11-15T02:17:03;8.00;99.90
52869;DHT22;39100;53.480;6.158;2022-11-15T02:22:26;8.00;99.90
52869;DHT22;39100;53.480;6.158;2022-11-15T02:30:45;7.90;99.90
52869;DHT22;39100;53.480;6.158;2022-11-15T02:36:38;7.90;99.90
52869;DHT22;39100;53.480;6.158;2022-11-15T02:39:28;7.90;99.90
52869;DHT22;39100;53.480;6.158;2022-11-15T02:42:19;7.80;99.90
52869;DHT22;39100;53.480;6.158;2022-11-15T02:45:07;7.80;99.90
52869;DHT22;39100;53.480;6.158;2022-11-15T02:47:43;7.80;99.90
52869;DHT22;39100;53.480;6.158;2022-11-15T02:50:12;7.80;99.90
52869;DHT22;39100;53.480;6.158;2022-11-15T02:52:38;7.80;99.90
52869;DHT22;39100;53.480;6.158;2022-11-15T02:55:04;7.70;99.90
52869;DHT22;39100;53.480;6.158;2022-11-15T03:00:31;7.60;99.90
52869;DHT22;39100;53.480;6.158;2022-11-15T03:05:35;7.60;99.90
52869;DHT22;39100;53.480;6.158;2022-11-15T03:08:18;7.60;99.90
52869;DHT22;39100;53.480;6.158;2022-11-15T03:11:08;7.60;99.90
52869;DHT22;39100;53.480;6.158;2022-11-15T03:19:06;7.50;99.90
52869;DHT22;39100;53.480;6.158;2022-11-15T03:21:33;7.50;99.90
52869;DHT22;39100;53.480;6.158;2022-11-15T03:24:03;7.50;99.90
52869;DHT22;39100;53.480;6.158;2022-11-15T03:26:29;7.50;99.90
52869;DHT22;39100;53.480;6.158;2022-11-15T03:29:01;7.50;99.90
52869;DHT22;39100;53.480;6.158;2022-11-15T03:31:31;7.50;99.90
52869;DHT22;39100;53.480;6.158;2022-11-15T03:34:22;7.50;99.90
52869;DHT22;39100;53.480;6.158;2022-11-15T03:36:50;7.50;99.90
52869;DHT22;39100;53.480;6.158;2022-11-15T03:39:16;7.40;99.90
52869;DHT22;39100;53.480;6.158;2022-11-15T03:44:48;7.40;99.90
52869;DHT22;39100;53.480;6.158;2022-11-15T03:49:51;7.40;99.90
52869;DHT22;39100;53.480;6.158;2022-11-15T03:52:19;7.40;99.90
52869;DHT22;39100;53.480;6.158;2022-11-15T03:54:51;7.40;99.90
52869;DHT22;39100;53.480;6.158;2022-11-15T03:57:18;7.40;99.90
52869;DHT22;39100;53.480;6.158;2022-11-15T03:59:43;7.40;99.90
52869;DHT22;39100;53.480;6.158;2022-11-15T04:02:09;7.40;99.90
52869;DHT22;39100;53.480;6.158;2022-11-15T04:04:34;7.50;99.90
52869;DHT22;39100;53.480;6.158;2022-11-15T04:07:00;7.40;99.90
52869;DHT22;39100;53.480;6.158;2022-11-15T04:09:26;7.50;99.90
52869;DHT22;39100;53.480;6.158;2022-11-15T04:11:51;7.50;99.90
52869;DHT22;39100;53.480;6.158;2022-11-15T04:14:17;7.50;99.90
52869;DHT22;39100;53.480;6.158;2022-11-15T04:16:42;7.50;99.90
52869;DHT22;39100;53.480;6.158;2022-11-15T04:19:08;7.50;99.90
52869;DHT22;39100;53.480;6.158;2022-11-15T04:21:52;7.50;99.90
52869;DHT22;39100;53.480;6.158;2022-11-15T04:24:36;7.50;99.90
52869;DHT22;39100;53.480;6.158;2022-11-15T04:27:01;7.60;99.90
52869;DHT22;39100;53.480;6.158;2022-11-15T04:29:27;7.60;99.90
52869;DHT22;39100;53.480;6.158;2022-11-15T04:32:03;7.60;99.90
52869;DHT22;39100;53.480;6.158;2022-11-15T04:34:29;7.60;99.90
52869;DHT22;39100;53.480;6.158;2022-11-15T04:36:55;7.60;99.90
52869;DHT22;39100;53.480;6.158;2022-11-15T04:39:43;7.60;99.90
52869;DHT22;39100;53.480;6.158;2022-11-15T04:42:08;7.60;99.90
52869;DHT22;39100;53.480;6.158;2022-11-15T04:44:34;7.60;99.90
52869;DHT22;39100;53.480;6.158;2022-11-15T04:47:00;7.60;99.90
52869;DHT22;39100;53.480;6.158;2022-11-15T04:49:25;7.70;99.90
52869;DHT22;39100;53.480;6.158;2022-11-15T04:51:51;7.70;99.90
52869;DHT22;39100;53.480;6.158;2022-11-15T04:54:17;7.60;99.90
52869;DHT22;39100;53.480;6.158;2022-11-15T04:56:43;7.70;99.90
52869;DHT22;39100;53.480;6.158;2022-11-15T04:59:08;7.70;99.90
52869;DHT22;39100;53.480;6.158;2022-11-15T05:01:34;7.70;99.90
52869;DHT22;39100;53.480;6.158;2022-11-15T05:03:59;7.80;99.90
52869;DHT22;39100;53.480;6.158;2022-11-15T05:06:43;7.80;99.90
52869;DHT22;39100;53.480;6.158;2022-11-15T05:09:09;7.80;99.90
52869;DHT22;39100;53.480;6.158;2022-11-15T05:11:35;7.80;99.90
52869;DHT22;39100;53.480;6.158;2022-11-15T05:14:00;7.80;99.90
52869;DHT22;39100;53.480;6.158;2022-11-15T05:16:26;7.80;99.90
52869;DHT22;39100;53.480;6.158;2022-11-15T05:18:55;7.80;99.90
52869;DHT22;39100;53.480;6.158;2022-11-15T05:21:21;7.80;99.90
52869;DHT22;39100;53.480;6.158;2022-11-15T05:23:46;7.80;99.90
52869;DHT22;39100;53.480;6.158;2022-11-15T05:26:13;7.90;99.90
52869;DHT22;39100;53.480;6.158;2022-11-15T05:28:40;7.90;99.90
52869;DHT22;39100;53.480;6.158;2022-11-15T05:31:11;7.90;99.90
52869;DHT22;39100;53.480;6.158;2022-11-15T05:33:38;7.90;99.90
52869;DHT22;39100;53.480;6.158;2022-11-15T05:38:33;8.00;99.90
52869;DHT22;39100;53.480;6.158;2022-11-15T05:41:00;8.00;99.90
52869;DHT22;39100;53.480;6.158;2022-11-15T05:43:27;8.00;99.90
52869;DHT22;39100;53.480;6.158;2022-11-15T05:45:53;8.00;99.90
52869;DHT22;39100;53.480;6.158;2022-11-15T05:48:19;8.10;99.90
52869;DHT22;39100;53.480;6.158;2022-11-15T05:50:46;8.10;99.90
52869;DHT22;39100;53.480;6.158;2022-11-15T05:53:15;8.10;99.90
52869;DHT22;39100;53.480;6.158;2022-11-15T05:55:41;8.10;99.90
52869;DHT22;39100;53.480;6.158;2022-11-15T05:58:07;8.10;99.90
52869;DHT22;39100;53.480;6.158;2022-11-15T06:00:33;8.10;99.90
52869;DHT22;39100;53.480;6.158;2022-11-15T06:02:58;8.20;99.90
52869;DHT22;39100;53.480;6.158;2022-11-15T06:05:24;8.20;99.90
52869;DHT22;39100;53.480;6.158;2022-11-15T06:07:50;8.20;99.90
52869;DHT22;39100;53.480;6.158;2022-11-15T06:10:15;8.20;99.90
52869;DHT22;39100;53.480;6.158;2022-11-15T06:12:41;8.20;99.90
52869;DHT22;39100;53.480;6.158;2022-11-15T06:15:07;8.30;99.90
52869;DHT22;39100;53.480;6.158;2022-11-15T06:17:32;8.30;99.90
52869;DHT22;39100;53.480;6.158;2022-11-15T06:19:58;8.30;99.90
52869;DHT22;39100;53.480;6.158;2022-11-15T06:22:24;8.30;99.90
52869;DHT22;39100;53.480;6.158;2022-11-15T06:24:49;8.40;99.90
52869;DHT22;39100;53.480;6.158;2022-11-15T06:27:15;8.40;99.90
52869;DHT22;39100;53.480;6.158;2022-11-15T06:29:40;8.40;99.90
52869;DHT22;39100;53.480;6.158;2022-11-15T06:32:06;8.40;99.90
52869;DHT22;39100;53.480;6.158;2022-11-15T06:34:31;8.40;99.90
52869;DHT22;39100;53.480;6.158;2022-11-15T06:36:57;8.40;99.90
52869;DHT22;39100;53.480;6.158;2022-11-15T06:39:22;8.40;99.90
52869;DHT22;39100;53.480;6.158;2022-11-15T06:41:48;8.40;99.90
52869;DHT22;39100;53.480;6.158;2022-11-15T06:44:13;8.40;99.90
52869;DHT22;39100;53.480;6.158;2022-11-15T06:46:39;8.50;99.90
52869;DHT22;39100;53.480;6.158;2022-11-15T06:49:04;8.50;99.90
52869;DHT22;39100;53.480;6.158;2022-11-15T06:51:30;8.50;99.90
52869;DHT22;39100;53.480;6.158;2022-11-15T06:53:55;8.50;99.90
52869;DHT22;39100;53.480;6.158;2022-11-15T06:56:21;8.50;99.90
52869;DHT22;39100;53.480;6.158;2022-11-15T06:58:46;8.60;99.90
52869;DHT22;39100;53.480;6.158;2022-11-15T07:01:12;8.60;99.90
52869;DHT22;39100;53.480;6.158;2022-11-15T07:03:40;8.60;99.90
52869;DHT22;39100;53.480;6.158;2022-11-15T07:06:06;8.70;99.90
52869;DHT22;39100;53.480;6.158;2022-11-15T07:08:32;8.70;99.90
52869;DHT22;39100;53.480;6.158;2022-11-15T07:10:59;8.70;99.90
52869;DHT22;39100;53.480;6.158;2022-11-15T07:13:27;8.70;99.90
52869;DHT22;39100;53.480;6.158;2022-11-15T07:15:53;8.80;99.90
52869;DHT22;39100;53.480;6.158;2022-11-15T07:18:19;8.80;99.90
52869;DHT22;39100;53.480;6.158;2022-11-15T07:20:44;8.80;99.90
52869;DHT22;39100;53.480;6.158;2022-11-15T07:23:10;8.90;99.90
52869;DHT22;39100;53.480;6.158;2022-11-15T07:25:36;8.90;99.90
52869;DHT22;39100;53.480;6.158;2022-11-15T07:28:02;8.90;99.90
52869;DHT22;39100;53.480;6.158;2022-11-15T07:30:28;9.00;99.90
52869;DHT22;39100;53.480;6.158;2022-11-15T07:32:58;9.00;99.90
52869;DHT22;39100;53.480;6.158;2022-11-15T07:35:25;9.10;99.90
52869;DHT22;39100;53.480;6.158;2022-11-15T07:38:01;9.10;99.90
52869;DHT22;39100;53.480;6.158;2022-11-15T07:40:28;9.10;99.90
52869;DHT22;39100;53.480;6.158;2022-11-15T07:43:06;9.10;99.90
52869;DHT22;39100;53.480;6.158;2022-11-15T07:45:32;9.20;99.90
52869;DHT22;39100;53.480;6.158;2022-11-15T07:48:00;9.20;99.90
52869;DHT22;39100;53.480;6.158;2022-11-15T07:50:26;9.30;99.90
52869;DHT22;39100;53.480;6.158;2022-11-15T07:52:59;9.30;99.90
52869;DHT22;39100;53.480;6.158;2022-11-15T07:55:26;9.30;99.90
52869;DHT22;39100;53.480;6.158;2022-11-15T07:57:53;9.40;99.90
52869;DHT22;39100;53.480;6.158;2022-11-15T08:00:20;9.40;99.90
52869;DHT22;39100;53.480;6.158;2022-11-15T08:02:45;9.40;99.90
52869;DHT22;39100;53.480;6.158;2022-11-15T08:05:11;9.50;99.90
52869;DHT22;39100;53.480;6.158;2022-11-15T08:07:37;9.50;99.90
52869;DHT22;39100;53.480;6.158;2022-11-15T08:10:04;9.60;99.90
52869;DHT22;39100;53.480;6.158;2022-11-15T08:12:31;9.60;99.90
52869;DHT22;39100;53.480;6.158;2022-11-15T08:14:56;10.00;99.90
52869;DHT22;39100;53.480;6.158;2022-11-15T08:17:23;9.70;99.90
52869;DHT22;39100;53.480;6.158;2022-11-15T08:19:49;9.70;99.90
52869;DHT22;39100;53.480;6.158;2022-11-15T08:22:14;9.80;99.90
52869;DHT22;39100;53.480;6.158;2022-11-15T08:24:40;10.40;99.90
52869;DHT22;39100;53.480;6.158;2022-11-15T08:27:06;9.90;99.90
52869;DHT22;39100;53.480;6.158;2022-11-15T08:29:40;10.00;99.90
52869;DHT22;39100;53.480;6.158;2022-11-15T08:32:06;10.00;99.90
52869;DHT22;39100;53.480;6.158;2022-11-15T08:34:33;10.10;99.90
52869;DHT22;39100;53.480;6.158;2022-11-15T08:36:59;10.10;99.90
52869;DHT22;39100;53.480;6.158;2022-11-15T08:39:24;10.20;99.90
52869;DHT22;39100;53.480;6.158;2022-11-15T08:41:50;10.20;99.90
52869;DHT22;39100;53.480;6.158;2022-11-15T08:44:15;10.30;99.90
52869;DHT22;39100;53.480;6.158;2022-11-15T08:46:41;10.30;99.90
52869;DHT22;39100;53.480;6.158;2022-11-15T08:49:07;10.60;99.90
52869;DHT22;39100;53.480;6.158;2022-11-15T08:51:32;10.30;99.90
52869;DHT22;39100;53.480;6.158;2022-11-15T08:53:58;10.40;99.90
52869;DHT22;39100;53.480;6.158;2022-11-15T08:56:23;10.40;99.90
52869;DHT22;39100;53.480;6.158;2022-11-15T08:58:49;10.40;99.90
52869;DHT22;39100;53.480;6.158;2022-11-15T09:01:17;10.40;99.90
52869;DHT22;39100;53.480;6.158;2022-11-15T09:03:43;10.50;99.90
52869;DHT22;39100;53.480;6.158;2022-11-15T09:06:08;10.50;99.90
52869;DHT22;39100;53.480;6.158;2022-11-15T09:08:34;10.60;99.90
52869;DHT22;39100;53.480;6.158;2022-11-15T09:11:06;10.60;99.90
52869;DHT22;39100;53.480;6.158;2022-11-15T09:13:32;10.70;99.90
52869;DHT22;39100;53.480;6.158;2022-11-15T09:15:59;10.90;99.90
52869;DHT22;39100;53.480;6.158;2022-11-15T09:18:25;10.80;99.90
52869;DHT22;39100;53.480;6.158;2022-11-15T09:20:54;10.80;99.90
52869;DHT22;39100;53.480;6.158;2022-11-15T09:23:19;10.80;99.90
52869;DHT22;39100;53.480;6.158;2022-11-15T09:25:45;10.90;99.90
52869;DHT22;39100;53.480;6.158;2022-11-15T09:28:10;10.90;99.90
52869;DHT22;39100;53.480;6.158;2022-11-15T09:30:36;11.00;99.90
52869;DHT22;39100;53.480;6.158;2022-11-15T09:33:09;11.00;99.90
52869;DHT22;39100;53.480;6.158;2022-11-15T09:35:35;11.00;99.90
52869;DHT22;39100;53.480;6.158;2022-11-15T09:38:01;11.10;99.90
52869;DHT22;39100;53.480;6.158;2022-11-15T09:40:27;11.10;99.90
52869;DHT22;39100;53.480;6.158;2022-11-15T09:45:55;11.00;99.90
52869;DHT22;39100;53.480;6.158;2022-11-15T09:51:14;11.10;99.90
52869;DHT22;39100;53.480;6.158;2022-11-15T09:53:49;11.10;99.90
52869;DHT22;39100;53.480;6.158;2022-11-15T09:56:22;11.10;99.90
52869;DHT22;39100;53.480;6.158;2022-11-15T10:01:41;11.20;99.90
52869;DHT22;39100;53.480;6.158;2022-11-15T10:04:09;11.20;99.90
52869;DHT22;39100;53.480;6.158;2022-11-15T10:06:40;11.20;99.90
52869;DHT22;39100;53.480;6.158;2022-11-15T10:09:19;11.30;99.90
52869;DHT22;39100;53.480;6.158;2022-11-15T10:11:48;11.30;99.90
52869;DHT22;39100;53.480;6.158;2022-11-15T10:14:14;11.40;99.90
52869;DHT22;39100;53.480;6.158;2022-11-15T10:24:34;11.60;99.90
52869;DHT22;39100;53.480;6.158;2022-11-15T10:27:09;11.70;99.90
52869;DHT22;39100;53.480;6.158;2022-11-15T10:29:36;11.70;99.90
52869;DHT22;39100;53.480;6.158;2022-11-15T10:32:01;12.50;99.90
52869;DHT22;39100;53.480;6.158;2022-11-15T10:34:27;11.80;99.90
52869;DHT22;39100;53.480;6.158;2022-11-15T10:36:57;11.80;99.90
52869;DHT22;39100;53.480;6.158;2022-11-15T10:39:23;11.70;99.90
52869;DHT22;39100;53.480;6.158;2022-11-15T10:41:49;11.70;99.90
52869;DHT22;39100;53.480;6.158;2022-11-15T10:54:21;11.70;99.90
52869;DHT22;39100;53.480;6.158;2022-11-15T10:56:56;11.70;99.90
52869;DHT22;39100;53.480;6.158;2022-11-15T10:59:33;11.70;99.90
52869;DHT22;39100;53.480;6.158;2022-11-15T11:02:00;11.80;99.90
52869;DHT22;39100;53.480;6.158;2022-11-15T11:04:26;13.00;99.90
52869;DHT22;39100;53.480;6.158;2022-11-15T11:06:59;11.90;99.90
52869;DHT22;39100;53.480;6.158;2022-11-15T11:09:39;11.90;99.90
52869;DHT22;39100;53.480;6.158;2022-11-15T11:12:11;12.00;99.90
52869;DHT22;39100;53.480;6.158;2022-11-15T11:14:38;12.00;99.90
52869;DHT22;39100;53.480;6.158;2022-11-15T11:17:36;11.90;99.90
52869;DHT22;39100;53.480;6.158;2022-11-15T11:20:25;12.00;99.90
52869;DHT22;39100;53.480;6.158;2022-11-15T11:23:15;12.00;99.90
52869;DHT22;39100;53.480;6.158;2022-11-15T11:25:49;12.00;99.90
52869;DHT22;39100;53.480;6.158;2022-11-15T11:30:52;11.90;99.90
52869;DHT22;39100;53.480;6.158;2022-11-15T11:33:24;11.90;99.90
52869;DHT22;39100;53.480;6.158;2022-11-15T11:36:09;12.00;99.90
52869;DHT22;39100;53.480;6.158;2022-11-15T11:38:58;12.00;99.90
52869;DHT22;39100;53.480;6.158;2022-11-15T11:49:48;12.00;99.90
52869;DHT22;39100;53.480;6.158;2022-11-15T11:52:29;11.90;99.90
52869;DHT22;39100;53.480;6.158;2022-11-15T11:54:59;11.90;99.90
52869;DHT22;39100;53.480;6.158;2022-11-15T12:00:12;11.90;99.90
52869;DHT22;39100;53.480;6.158;2022-11-15T12:02:42;11.90;99.90
52869;DHT22;39100;53.480;6.158;2022-11-15T12:05:22;11.90;99.90
52869;DHT22;39100;53.480;6.158;2022-11-15T12:07:56;11.90;99.90
52869;DHT22;39100;53.480;6.158;2022-11-15T12:10:29;11.90;99.90
52869;DHT22;39100;53.480;6.158;2022-11-15T12:13:10;11.80;99.90
52869;DHT22;39100;53.480;6.158;2022-11-15T12:18:16;11.80;99.90
52869;DHT22;39100;53.480;6.158;2022-11-15T12:21:00;11.80;99.90
52869;DHT22;39100;53.480;6.158;2022-11-15T12:23:29;11.80;99.90
52869;DHT22;39100;53.480;6.158;2022-11-15T12:26:02;11.80;99.90
52869;DHT22;39100;53.480;6.158;2022-11-15T12:28:37;11.80;99.90
52869;DHT22;39100;53.480;6.158;2022-11-15T12:36:47;11.90;99.90
52869;DHT22;39100;53.480;6.158;2022-11-15T12:39:14;11.80;99.90
52869;DHT22;39100;53.480;6.158;2022-11-15T13:00:04;12.60;99.90
52869;DHT22;39100;53.480;6.158;2022-11-15T13:02:34;12.70;99.90
52869;DHT22;39100;53.480;6.158;2022-11-15T13:17:47;12.60;99.90
52869;DHT22;39100;53.480;6.158;2022-11-15T13:22:41;12.60;99.90
52869;DHT22;39100;53.480;6.158;2022-11-15T13:30:38;12.50;99.90
52869;DHT22;39100;53.480;6.158;2022-11-15T13:33:19;12.40;99.90
52869;DHT22;39100;53.480;6.158;2022-11-15T13:35:50;12.40;99.90
52869;DHT22;39100;53.480;6.158;2022-11-15T13:38:31;12.30;99.90
52869;DHT22;39100;53.480;6.158;2022-11-15T13:40:58;12.30;99.90
52869;DHT22;39100;53.480;6.158;2022-11-15T13:43:34;12.40;99.90
52869;DHT22;39100;53.480;6.158;2022-11-15T13:46:22;12.40;99.90
52869;DHT22;39100;53.480;6.158;2022-11-15T13:48:56;12.50;99.90
52869;DHT22;39100;53.480;6.158;2022-11-15T13:51:30;12.90;99.90
52869;DHT22;39100;53.480;6.158;2022-11-15T13:54:25;12.50;99.90
52869;DHT22;39100;53.480;6.158;2022-11-15T13:57:14;12.40;99.90
52869;DHT22;39100;53.480;6.158;2022-11-15T14:02:14;12.20;99.90
52869;DHT22;39100;53.480;6.158;2022-11-15T14:04:53;12.10;99.90
52869;DHT22;39100;53.480;6.158;2022-11-15T14:07:21;12.10;99.90
52869;DHT22;39100;53.480;6.158;2022-11-15T14:09:47;12.00;99.90
52869;DHT22;39100;53.480;6.158;2022-11-15T14:12:31;11.90;99.90
52869;DHT22;39100;53.480;6.158;2022-11-15T14:14:58;11.90;99.90
52869;DHT22;39100;53.480;6.158;2022-11-15T14:19:57;11.80;99.90
52869;DHT22;39100;53.480;6.158;2022-11-15T14:22:24;11.70;99.90
52869;DHT22;39100;53.480;6.158;2022-11-15T14:25:17;11.60;99.90
52869;DHT22;39100;53.480;6.158;2022-11-15T14:30:29;11.50;99.90
52869;DHT22;39100;53.480;6.158;2022-11-15T14:32:54;11.50;99.90
52869;DHT22;39100;53.480;6.158;2022-11-15T14:35:21;11.50;99.90
52869;DHT22;39100;53.480;6.158;2022-11-15T14:37:47;11.40;99.90
52869;DHT22;39100;53.480;6.158;2022-11-15T14:40:18;11.40;99.90
52869;DHT22;39100;53.480;6.158;2022-11-15T14:42:46;11.40;99.90
52869;DHT22;39100;53.480;6.158;2022-11-15T14:45:18;11.30;99.90
52869;DHT22;39100;53.480;6.158;2022-11-15T14:47:45;11.20;99.90
52869;DHT22;39100;53.480;6.158;2022-11-15T14:50:16;11.20;99.90
52869;DHT22;39100;53.480;6.158;2022-11-15T14:52:42;11.20;99.90
52869;DHT22;39100;53.480;6.158;2022-11-15T14:55:18;11.10;99.90
52869;DHT22;39100;53.480;6.158;2022-11-15T14:57:45;11.10;99.90
52869;DHT22;39100;53.480;6.158;2022-11-15T15:00:11;11.10;99.90
52869;DHT22;39100;53.480;6.158;2022-11-15T15:02:37;11.00;99.90
52869;DHT22;39100;53.480;6.158;2022-11-15T15:05:14;11.00;99.90
52869;DHT22;39100;53.480;6.158;2022-11-15T15:07:40;10.90;99.90
52869;DHT22;39100;53.480;6.158;2022-11-15T15:10:05;10.90;99.90
52869;DHT22;39100;53.480;6.158;2022-11-15T15:12:31;10.90;99.90
52869;DHT22;39100;53.480;6.158;2022-11-15T15:14:57;11.40;99.90
52869;DHT22;39100;53.480;6.158;2022-11-15T15:17:22;10.90;99.90
52869;DHT22;39100;53.480;6.158;2022-11-15T15:19:48;11.10;99.90
52869;DHT22;39100;53.480;6.158;2022-11-15T15:22:18;10.80;99.90
52869;DHT22;39100;53.480;6.158;2022-11-15T15:24:45;10.80;99.90
52869;DHT22;39100;53.480;6.158;2022-11-15T15:27:12;10.80;99.90
52869;DHT22;39100;53.480;6.158;2022-11-15T15:29:38;10.70;99.90
52869;DHT22;39100;53.480;6.158;2022-11-15T15:32:04;10.70;99.90
52869;DHT22;39100;53.480;6.158;2022-11-15T15:34:30;10.60;99.90
52869;DHT22;39100;53.480;6.158;2022-11-15T15:37:25;10.60;99.90
52869;DHT22;39100;53.480;6.158;2022-11-15T15:39:55;10.70;99.90
52869;DHT22;39100;53.480;6.158;2022-11-15T15:42:22;10.60;99.90
52869;DHT22;39100;53.480;6.158;2022-11-15T15:44:48;10.50;99.90
52869;DHT22;39100;53.480;6.158;2022-11-15T15:47:20;10.50;99.90
52869;DHT22;39100;53.480;6.158;2022-11-15T15:49:46;10.50;99.90
52869;DHT22;39100;53.480;6.158;2022-11-15T15:52:12;10.40;99.90
52869;DHT22;39100;53.480;6.158;2022-11-15T15:54:38;10.40;99.90
52869;DHT22;39100;53.480;6.158;2022-11-15T15:57:05;10.40;99.90
52869;DHT22;39100;53.480;6.158;2022-11-15T15:59:31;10.40;99.90
52869;DHT22;39100;53.480;6.158;2022-11-15T16:01:57;10.40;99.90
52869;DHT22;39100;53.480;6.158;2022-11-15T16:04:22;10.40;99.90
52869;DHT22;39100;53.480;6.158;2022-11-15T16:06:48;10.30;99.90
52869;DHT22;39100;53.480;6.158;2022-11-15T16:09:17;10.40;99.90
52869;DHT22;39100;53.480;6.158;2022-11-15T16:11:45;10.30;99.90
52869;DHT22;39100;53.480;6.158;2022-11-15T16:14:11;10.30;99.90
52869;DHT22;39100;53.480;6.158;2022-11-15T16:16:37;10.30;99.90
52869;DHT22;39100;53.480;6.158;2022-11-15T16:19:03;10.20;99.90
52869;DHT22;39100;53.480;6.158;2022-11-15T16:21:30;10.80;99.90
52869;DHT22;39100;53.480;6.158;2022-11-15T16:23:56;10.20;99.90
52869;DHT22;39100;53.480;6.158;2022-11-15T16:26:25;10.30;99.90
52869;DHT22;39100;53.480;6.158;2022-11-15T16:28:51;10.30;99.90
52869;DHT22;39100;53.480;6.158;2022-11-15T16:31:17;10.20;99.90
52869;DHT22;39100;53.480;6.158;2022-11-15T16:33:45;10.20;99.90
52869;DHT22;39100;53.480;6.158;2022-11-15T16:36:24;10.20;99.90
52869;DHT22;39100;53.480;6.158;2022-11-15T16:38:51;10.20;99.90
52869;DHT22;39100;53.480;6.158;2022-11-15T16:41:17;10.20;99.90
52869;DHT22;39100;53.480;6.158;2022-11-15T16:43:46;10.20;99.90
52869;DHT22;39100;53.480;6.158;2022-11-15T16:46:22;10.20;99.90
52869;DHT22;39100;53.480;6.158;2022-11-15T16:48:48;10.10;99.90
52869;DHT22;39100;53.480;6.158;2022-11-15T16:51:14;10.20;99.90
52869;DHT22;39100;53.480;6.158;2022-11-15T16:53:41;10.20;99.90
52869;DHT22;39100;53.480;6.158;2022-11-15T16:56:28;10.20;99.90
52869;DHT22;39100;53.480;6.158;2022-11-15T16:58:55;10.30;99.90
52869;DHT22;39100;53.480;6.158;2022-11-15T17:01:31;10.30;99.90
52869;DHT22;39100;53.480;6.158;2022-11-15T17:03:58;10.30;99.90
52869;DHT22;39100;53.480;6.158;2022-11-15T17:06:24;10.40;99.90
52869;DHT22;39100;53.480;6.158;2022-11-15T17:08:50;10.40;99.90
52869;DHT22;39100;53.480;6.158;2022-11-15T17:11:18;10.40;99.90
52869;DHT22;39100;53.480;6.158;2022-11-15T17:13:44;10.40;99.90
52869;DHT22;39100;53.480;6.158;2022-11-15T17:16:12;10.40;99.90
52869;DHT22;39100;53.480;6.158;2022-11-15T17:18:39;10.40;99.90
52869;DHT22;39100;53.480;6.158;2022-11-15T17:21:14;10.40;99.90
52869;DHT22;39100;53.480;6.158;2022-11-15T17:23:40;10.40;99.90
52869;DHT22;39100;53.480;6.158;2022-11-15T17:26:07;10.60;99.90
52869;DHT22;39100;53.480;6.158;2022-11-15T17:28:34;10.40;99.90
52869;DHT22;39100;53.480;6.158;2022-11-15T17:31:00;10.40;99.90
52869;DHT22;39100;53.480;6.158;2022-11-15T17:33:26;10.40;99.90
52869;DHT22;39100;53.480;6.158;2022-11-15T17:35:56;10.40;99.90
52869;DHT22;39100;53.480;6.158;2022-11-15T17:38:22;10.40;99.90
52869;DHT22;39100;53.480;6.158;2022-11-15T17:40:47;10.40;99.90
52869;DHT22;39100;53.480;6.158;2022-11-15T17:43:13;10.40;99.90
52869;DHT22;39100;53.480;6.158;2022-11-15T17:45:41;10.40;99.90
52869;DHT22;39100;53.480;6.158;2022-11-15T17:48:07;10.40;99.90
52869;DHT22;39100;53.480;6.158;2022-11-15T17:50:32;10.50;99.90
52869;DHT22;39100;53.480;6.158;2022-11-15T17:52:59;11.40;99.90
52869;DHT22;39100;53.480;6.158;2022-11-15T17:55:24;10.50;99.90
52869;DHT22;39100;53.480;6.158;2022-11-15T17:57:50;10.50;99.90